sensor_id;sensor_type;location;lat;lon;timestamp;temperature;humidity
10411;DHT22;5251;52.112;8.606;2024-03-25T00:01:52;8.60;99.90
10411;DHT22;5251;52.112;8.606;2024-03-25T00:04:17;8.60;99.90
10411;DHT22;5251;52.112;8.606;2024-03-25T00:06:43;8.60;99.90
10411;DHT22;5251;52.112;8.606;2024-03-25T00:09:08;8.60;99.90
10411;DHT22;5251;52.112;8.606;2024-03-25T00:11:40;8.60;99.90
10411;DHT22;5251;52.112;8.606;2024-03-25T00:14:05;8.60;99.90
10411;DHT22;5251;52.112;8.606;2024-03-25T00:16:31;8.60;99.90
10411;DHT22;5251;52.112;8.606;2024-03-25T00:18:57;8.50;99.90
10411;DHT22;5251;52.112;8.606;2024-03-25T00:21:22;8.60;99.90
10411;DHT22;5251;52.112;8.606;2024-03-25T00:23:48;8.50;99.90
10411;DHT22;5251;52.112;8.606;2024-03-25T00:26:13;8.50;99.90
10411;DHT22;5251;52.112;8.606;2024-03-25T00:28:39;8.40;99.90
10411;DHT22;5251;52.112;8.606;2024-03-25T00:31:04;8.40;99.90
10411;DHT22;5251;52.112;8.606;2024-03-25T00:33:30;8.40;99.90
10411;DHT22;5251;52.112;8.606;2024-03-25T00:35:56;8.40;99.90
10411;DHT22;5251;52.112;8.606;2024-03-25T00:38:21;8.40;99.90
10411;DHT22;5251;52.112;8.606;2024-03-25T00:40:47;8.40;99.90
10411;DHT22;5251;52.112;8.606;2024-03-25T00:43:12;8.40;99.90
10411;DHT22;5251;52.112;8.606;2024-03-25T00:45:38;8.30;99.90
10411;DHT22;5251;52.112;8.606;2024-03-25T00:48:04;8.40;99.90
10411;DHT22;5251;52.112;8.606;2024-03-25T00:50:30;8.40;99.90
10411;DHT22;5251;52.112;8.606;2024-03-25T00:52:56;8.40;99.90
10411;DHT22;5251;52.112;8.606;2024-03-25T00:55:22;8.30;99.90
10411;DHT22;5251;52.112;8.606;2024-03-25T00:57:47;8.40;99.90
10411;DHT22;5251;52.112;8.606;2024-03-25T01:00:13;8.40;99.90
10411;DHT22;5251;52.112;8.606;2024-03-25T01:02:41;8.40;99.90
10411;DHT22;5251;52.112;8.606;2024-03-25T01:05:07;8.40;99.90
10411;DHT22;5251;52.112;8.606;2024-03-25T01:07:33;8.40;99.90
10411;DHT22;5251;52.112;8.606;2024-03-25T01:09:58;8.40;99.90
10411;DHT22;5251;52.112;8.606;2024-03-25T01:12:25;8.40;99.90
10411;DHT22;5251;52.112;8.606;2024-03-25T01:14:51;8.30;99.90
10411;DHT22;5251;52.112;8.606;2024-03-25T01:17:17;8.30;99.90
10411;DHT22;5251;52.112;8.606;2024-03-25T01:19:42;8.30;99.90
10411;DHT22;5251;52.112;8.606;2024-03-25T01:22:08;8.30;99.90
10411;DHT22;5251;52.112;8.606;2024-03-25T01:24:34;8.30;99.90
10411;DHT22;5251;52.112;8.606;2024-03-25T01:27:00;8.30;99.90
10411;DHT22;5251;52.112;8.606;2024-03-25T01:29:26;8.20;99.90
10411;DHT22;5251;52.112;8.606;2024-03-25T01:31:51;8.20;99.90
10411;DHT22;5251;52.112;8.606;2024-03-25T01:34:17;8.20;99.90
10411;DHT22;5251;52.112;8.606;2024-03-25T01:36:43;8.10;99.90
10411;DHT22;5251;52.112;8.606;2024-03-25T01:39:08;8.10;99.90
10411;DHT22;5251;52.112;8.606;2024-03-25T01:41:35;8.10;99.90
10411;DHT22;5251;52.112;8.606;2024-03-25T01:44:01;8.10;99.90
10411;DHT22;5251;52.112;8.606;2024-03-25T01:46:27;8.10;99.90
10411;DHT22;5251;52.112;8.606;2024-03-25T01:48:53;8.10;99.90
10411;DHT22;5251;52.112;8.606;2024-03-25T01:51:20;8.20;99.90
10411;DHT22;5251;52.112;8.606;2024-03-25T01:53:47;8.20;99.90
10411;DHT22;5251;52.112;8.606;2024-03-25T01:56:14;8.20;99.90
10411;DHT22;5251;52.112;8.606;2024-03-25T01:58:40;8.20;99.90
10411;DHT22;5251;52.112;8.606;2024-03-25T02:01:06;8.20;99.90
10411;DHT22;5251;52.112;8.606;2024-03-25T02:03:35;8.20;99.90
10411;DHT22;5251;52.112;8.606;2024-03-25T02:06:06;8.20;99.90
10411;DHT22;5251;52.112;8.606;2024-03-25T02:08:34;8.20;99.90
10411;DHT22;5251;52.112;8.606;2024-03-25T02:11:00;8.20;99.90
10411;DHT22;5251;52.112;8.606;2024-03-25T02:13:26;8.20;99.90
10411;DHT22;5251;52.112;8.606;2024-03-25T02:15:52;8.20;99.90
10411;DHT22;5251;52.112;8.606;2024-03-25T02:18:20;8.20;99.90
10411;DHT22;5251;52.112;8.606;2024-03-25T02:20:46;8.20;99.90
10411;DHT22;5251;52.112;8.606;2024-03-25T02:23:12;8.20;99.90
10411;DHT22;5251;52.112;8.606;2024-03-25T02:25:40;8.20;99.90
10411;DHT22;5251;52.112;8.606;2024-03-25T02:28:07;8.20;99.90
10411;DHT22;5251;52.112;8.606;2024-03-25T02:30:32;8.20;99.90
10411;DHT22;5251;52.112;8.606;2024-03-25T02:32:58;8.20;99.90
10411;DHT22;5251;52.112;8.606;2024-03-25T02:35:25;8.20;99.90
10411;DHT22;5251;52.112;8.606;2024-03-25T02:37:51;8.20;99.90
10411;DHT22;5251;52.112;8.606;2024-03-25T02:40:18;8.20;99.90
10411;DHT22;5251;52.112;8.606;2024-03-25T02:42:44;8.20;99.90
10411;DHT22;5251;52.112;8.606;2024-03-25T02:45:10;8.20;99.90
10411;DHT22;5251;52.112;8.606;2024-03-25T02:47:35;8.20;99.90
10411;DHT22;5251;52.112;8.606;2024-03-25T02:50:01;8.20;99.90
10411;DHT22;5251;52.112;8.606;2024-03-25T02:52:27;8.30;99.90
10411;DHT22;5251;52.112;8.606;2024-03-25T02:54:52;8.30;99.90
10411;DHT22;5251;52.112;8.606;2024-03-25T02:57:20;8.30;99.90
10411;DHT22;5251;52.112;8.606;2024-03-25T02:59:45;8.20;99.90
10411;DHT22;5251;52.112;8.606;2024-03-25T03:02:11;8.30;99.90
10411;DHT22;5251;52.112;8.606;2024-03-25T03:04:36;8.30;99.90
10411;DHT22;5251;52.112;8.606;2024-03-25T03:07:02;8.30;99.90
10411;DHT22;5251;52.112;8.606;2024-03-25T03:09:28;8.30;99.90
10411;DHT22;5251;52.112;8.606;2024-03-25T03:11:53;8.30;99.90
10411;DHT22;5251;52.112;8.606;2024-03-25T03:14:19;8.30;99.90
10411;DHT22;5251;52.112;8.606;2024-03-25T03:16:44;8.30;99.90
10411;DHT22;5251;52.112;8.606;2024-03-25T03:19:10;8.30;99.90
10411;DHT22;5251;52.112;8.606;2024-03-25T03:21:36;8.30;99.90
10411;DHT22;5251;52.112;8.606;2024-03-25T03:24:02;8.30;99.90
10411;DHT22;5251;52.112;8.606;2024-03-25T03:26:28;8.30;99.90
10411;DHT22;5251;52.112;8.606;2024-03-25T03:28:54;8.30;99.90
10411;DHT22;5251;52.112;8.606;2024-03-25T03:31:20;8.30;99.90
10411;DHT22;5251;52.112;8.606;2024-03-25T03:33:52;8.30;99.90
10411;DHT22;5251;52.112;8.606;2024-03-25T03:36:18;8.30;99.90
10411;DHT22;5251;52.112;8.606;2024-03-25T03:38:45;8.30;99.90
10411;DHT22;5251;52.112;8.606;2024-03-25T03:41:11;8.20;99.90
10411;DHT22;5251;52.112;8.606;2024-03-25T03:43:36;8.20;99.90
10411;DHT22;5251;52.112;8.606;2024-03-25T03:46:02;8.20;99.90
10411;DHT22;5251;52.112;8.606;2024-03-25T03:48:29;8.10;99.90
10411;DHT22;5251;52.112;8.606;2024-03-25T03:50:55;8.10;99.90
10411;DHT22;5251;52.112;8.606;2024-03-25T03:53:20;8.20;99.90
10411;DHT22;5251;52.112;8.606;2024-03-25T03:56:03;8.20;99.90
10411;DHT22;5251;52.112;8.606;2024-03-25T03:58:32;8.10;99.90
10411;DHT22;5251;52.112;8.606;2024-03-25T04:00:58;8.10;99.90
10411;DHT22;5251;52.112;8.606;2024-03-25T04:03:24;8.10;99.90
10411;DHT22;5251;52.112;8.606;2024-03-25T04:05:50;8.10;99.90
10411;DHT22;5251;52.112;8.606;2024-03-25T04:08:15;8.10;99.90
10411;DHT22;5251;52.112;8.606;2024-03-25T04:10:43;8.00;99.90
10411;DHT22;5251;52.112;8.606;2024-03-25T04:13:09;8.00;99.90
10411;DHT22;5251;52.112;8.606;2024-03-25T04:15:35;8.00;99.90
10411;DHT22;5251;52.112;8.606;2024-03-25T04:18:02;8.00;99.90
10411;DHT22;5251;52.112;8.606;2024-03-25T04:20:28;8.00;99.90
10411;DHT22;5251;52.112;8.606;2024-03-25T04:22:55;8.00;99.90
10411;DHT22;5251;52.112;8.606;2024-03-25T04:25:21;8.00;99.90
10411;DHT22;5251;52.112;8.606;2024-03-25T04:27:47;8.00;99.90
10411;DHT22;5251;52.112;8.606;2024-03-25T04:30:13;8.00;99.90
10411;DHT22;5251;52.112;8.606;2024-03-25T04:32:39;8.00;99.90
10411;DHT22;5251;52.112;8.606;2024-03-25T04:35:07;8.00;99.90
10411;DHT22;5251;52.112;8.606;2024-03-25T04:37:33;8.00;99.90
10411;DHT22;5251;52.112;8.606;2024-03-25T04:39:59;8.00;99.90
10411;DHT22;5251;52.112;8.606;2024-03-25T04:42:25;8.00;99.90
10411;DHT22;5251;52.112;8.606;2024-03-25T04:44:51;8.00;99.90
10411;DHT22;5251;52.112;8.606;2024-03-25T04:47:17;8.00;99.90
10411;DHT22;5251;52.112;8.606;2024-03-25T04:49:44;8.00;99.90
10411;DHT22;5251;52.112;8.606;2024-03-25T04:52:10;8.00;99.90
10411;DHT22;5251;52.112;8.606;2024-03-25T04:54:38;8.00;99.90
10411;DHT22;5251;52.112;8.606;2024-03-25T04:57:04;8.00;99.90
10411;DHT22;5251;52.112;8.606;2024-03-25T04:59:31;7.90;99.90
10411;DHT22;5251;52.112;8.606;2024-03-25T05:01:57;7.90;99.90
10411;DHT22;5251;52.112;8.606;2024-03-25T05:04:23;8.00;99.90
10411;DHT22;5251;52.112;8.606;2024-03-25T05:06:50;8.00;99.90
10411;DHT22;5251;52.112;8.606;2024-03-25T05:09:15;7.90;99.90
10411;DHT22;5251;52.112;8.606;2024-03-25T05:11:42;7.90;99.90
10411;DHT22;5251;52.112;8.606;2024-03-25T05:14:07;8.00;99.90
10411;DHT22;5251;52.112;8.606;2024-03-25T05:16:33;8.00;99.90
10411;DHT22;5251;52.112;8.606;2024-03-25T05:18:59;8.00;99.90
10411;DHT22;5251;52.112;8.606;2024-03-25T05:21:24;8.00;99.90
10411;DHT22;5251;52.112;8.606;2024-03-25T05:23:50;8.00;99.90
10411;DHT22;5251;52.112;8.606;2024-03-25T05:26:16;8.00;99.90
10411;DHT22;5251;52.112;8.606;2024-03-25T05:28:41;8.00;99.90
10411;DHT22;5251;52.112;8.606;2024-03-25T05:31:08;8.00;99.90
10411;DHT22;5251;52.112;8.606;2024-03-25T05:33:33;8.10;99.90
10411;DHT22;5251;52.112;8.606;2024-03-25T05:35:59;8.10;99.90
10411;DHT22;5251;52.112;8.606;2024-03-25T05:38:28;8.10;99.90
10411;DHT22;5251;52.112;8.606;2024-03-25T05:40:55;8.10;99.90
10411;DHT22;5251;52.112;8.606;2024-03-25T05:43:21;8.10;99.90
10411;DHT22;5251;52.112;8.606;2024-03-25T05:45:56;8.10;99.90
10411;DHT22;5251;52.112;8.606;2024-03-25T05:48:24;8.10;99.90
10411;DHT22;5251;52.112;8.606;2024-03-25T05:51:02;8.00;99.90
10411;DHT22;5251;52.112;8.606;2024-03-25T05:53:29;8.00;99.90
10411;DHT22;5251;52.112;8.606;2024-03-25T05:55:55;8.00;99.90
10411;DHT22;5251;52.112;8.606;2024-03-25T05:58:21;8.00;99.90
10411;DHT22;5251;52.112;8.606;2024-03-25T06:00:48;8.00;99.90
10411;DHT22;5251;52.112;8.606;2024-03-25T06:03:14;8.00;99.90
10411;DHT22;5251;52.112;8.606;2024-03-25T06:05:40;8.00;99.90
10411;DHT22;5251;52.112;8.606;2024-03-25T06:08:06;8.00;99.90
10411;DHT22;5251;52.112;8.606;2024-03-25T06:10:39;8.00;99.90
10411;DHT22;5251;52.112;8.606;2024-03-25T06:13:05;8.10;99.90
10411;DHT22;5251;52.112;8.606;2024-03-25T06:15:30;8.10;99.90
10411;DHT22;5251;52.112;8.606;2024-03-25T06:17:56;8.10;99.90
10411;DHT22;5251;52.112;8.606;2024-03-25T06:20:21;8.20;99.90
10411;DHT22;5251;52.112;8.606;2024-03-25T06:22:47;8.20;99.90
10411;DHT22;5251;52.112;8.606;2024-03-25T06:25:13;8.20;99.90
10411;DHT22;5251;52.112;8.606;2024-03-25T06:27:38;8.20;99.90
10411;DHT22;5251;52.112;8.606;2024-03-25T06:30:04;8.30;99.90
10411;DHT22;5251;52.112;8.606;2024-03-25T06:32:48;8.30;99.90
10411;DHT22;5251;52.112;8.606;2024-03-25T06:35:32;8.30;99.90
10411;DHT22;5251;52.112;8.606;2024-03-25T06:37:58;8.30;99.90
10411;DHT22;5251;52.112;8.606;2024-03-25T06:40:24;8.40;99.90
10411;DHT22;5251;52.112;8.606;2024-03-25T06:42:50;8.40;99.90
10411;DHT22;5251;52.112;8.606;2024-03-25T06:45:15;8.50;99.90
10411;DHT22;5251;52.112;8.606;2024-03-25T06:47:42;8.50;99.90
10411;DHT22;5251;52.112;8.606;2024-03-25T06:50:08;8.60;99.90
10411;DHT22;5251;52.112;8.606;2024-03-25T06:52:34;8.60;99.90
10411;DHT22;5251;52.112;8.606;2024-03-25T06:54:59;8.70;99.90
10411;DHT22;5251;52.112;8.606;2024-03-25T06:57:25;8.70;99.90
10411;DHT22;5251;52.112;8.606;2024-03-25T06:59:51;8.90;99.90
10411;DHT22;5251;52.112;8.606;2024-03-25T07:02:17;8.90;99.90
10411;DHT22;5251;52.112;8.606;2024-03-25T07:04:42;8.90;99.90
10411;DHT22;5251;52.112;8.606;2024-03-25T07:07:08;8.90;99.90
10411;DHT22;5251;52.112;8.606;2024-03-25T07:09:34;8.90;99.90
10411;DHT22;5251;52.112;8.606;2024-03-25T07:11:59;8.90;99.90
10411;DHT22;5251;52.112;8.606;2024-03-25T07:14:25;8.90;99.90
10411;DHT22;5251;52.112;8.606;2024-03-25T07:16:51;8.90;99.90
10411;DHT22;5251;52.112;8.606;2024-03-25T07:19:16;9.00;99.90
10411;DHT22;5251;52.112;8.606;2024-03-25T07:21:42;9.00;99.90
10411;DHT22;5251;52.112;8.606;2024-03-25T07:24:07;9.10;99.90
10411;DHT22;5251;52.112;8.606;2024-03-25T07:26:33;9.10;99.90
10411;DHT22;5251;52.112;8.606;2024-03-25T07:28:58;9.10;99.90
10411;DHT22;5251;52.112;8.606;2024-03-25T07:31:24;9.20;99.90
10411;DHT22;5251;52.112;8.606;2024-03-25T07:33:51;9.20;99.90
10411;DHT22;5251;52.112;8.606;2024-03-25T07:36:16;9.20;99.90
10411;DHT22;5251;52.112;8.606;2024-03-25T07:38:42;9.30;99.90
10411;DHT22;5251;52.112;8.606;2024-03-25T07:41:08;9.40;99.90
10411;DHT22;5251;52.112;8.606;2024-03-25T07:43:34;9.50;99.90
10411;DHT22;5251;52.112;8.606;2024-03-25T07:46:00;9.50;99.90
10411;DHT22;5251;52.112;8.606;2024-03-25T07:48:25;9.60;99.90
10411;DHT22;5251;52.112;8.606;2024-03-25T07:50:51;9.70;99.90
10411;DHT22;5251;52.112;8.606;2024-03-25T07:53:16;9.80;99.90
10411;DHT22;5251;52.112;8.606;2024-03-25T07:55:42;9.90;99.90
10411;DHT22;5251;52.112;8.606;2024-03-25T07:58:08;9.90;99.90
10411;DHT22;5251;52.112;8.606;2024-03-25T08:00:33;10.00;99.90
10411;DHT22;5251;52.112;8.606;2024-03-25T08:03:00;10.10;99.80
10411;DHT22;5251;52.112;8.606;2024-03-25T08:05:26;10.20;99.90
10411;DHT22;5251;52.112;8.606;2024-03-25T08:07:52;10.30;99.60
10411;DHT22;5251;52.112;8.606;2024-03-25T08:10:17;10.30;99.20
10411;DHT22;5251;52.112;8.606;2024-03-25T08:12:43;10.40;99.00
10411;DHT22;5251;52.112;8.606;2024-03-25T08:15:08;10.50;99.40
10411;DHT22;5251;52.112;8.606;2024-03-25T08:17:34;10.60;99.40
10411;DHT22;5251;52.112;8.606;2024-03-25T08:20:00;10.60;98.60
10411;DHT22;5251;52.112;8.606;2024-03-25T08:22:25;10.70;98.30
10411;DHT22;5251;52.112;8.606;2024-03-25T08:24:51;10.70;98.20
10411;DHT22;5251;52.112;8.606;2024-03-25T08:27:16;10.70;98.20
10411;DHT22;5251;52.112;8.606;2024-03-25T08:29:42;10.80;98.10
10411;DHT22;5251;52.112;8.606;2024-03-25T08:32:07;10.90;97.70
10411;DHT22;5251;52.112;8.606;2024-03-25T08:34:33;10.90;98.10
10411;DHT22;5251;52.112;8.606;2024-03-25T08:36:59;10.90;97.40
10411;DHT22;5251;52.112;8.606;2024-03-25T08:39:25;11.00;97.50
10411;DHT22;5251;52.112;8.606;2024-03-25T08:41:51;11.00;97.40
10411;DHT22;5251;52.112;8.606;2024-03-25T08:44:16;11.10;97.70
10411;DHT22;5251;52.112;8.606;2024-03-25T08:46:42;11.10;97.60
10411;DHT22;5251;52.112;8.606;2024-03-25T08:49:07;11.20;97.10
10411;DHT22;5251;52.112;8.606;2024-03-25T08:51:34;11.20;96.70
10411;DHT22;5251;52.112;8.606;2024-03-25T08:53:59;11.30;96.50
10411;DHT22;5251;52.112;8.606;2024-03-25T08:56:25;11.30;96.90
10411;DHT22;5251;52.112;8.606;2024-03-25T08:58:51;11.40;96.80
10411;DHT22;5251;52.112;8.606;2024-03-25T09:01:20;11.40;97.00
10411;DHT22;5251;52.112;8.606;2024-03-25T09:03:45;11.50;96.20
10411;DHT22;5251;52.112;8.606;2024-03-25T09:06:11;11.50;96.20
10411;DHT22;5251;52.112;8.606;2024-03-25T09:08:37;11.60;95.80
10411;DHT22;5251;52.112;8.606;2024-03-25T09:11:22;11.70;96.30
10411;DHT22;5251;52.112;8.606;2024-03-25T09:13:50;11.80;95.80
10411;DHT22;5251;52.112;8.606;2024-03-25T09:16:16;11.90;96.00
10411;DHT22;5251;52.112;8.606;2024-03-25T09:18:42;12.00;95.60
10411;DHT22;5251;52.112;8.606;2024-03-25T09:21:08;12.00;95.60
10411;DHT22;5251;52.112;8.606;2024-03-25T09:23:34;12.10;95.20
10411;DHT22;5251;52.112;8.606;2024-03-25T09:26:00;12.20;95.80
10411;DHT22;5251;52.112;8.606;2024-03-25T09:28:25;12.40;96.60
10411;DHT22;5251;52.112;8.606;2024-03-25T09:30:51;12.50;96.00
10411;DHT22;5251;52.112;8.606;2024-03-25T09:33:16;12.60;95.90
10411;DHT22;5251;52.112;8.606;2024-03-25T09:35:42;12.70;96.00
10411;DHT22;5251;52.112;8.606;2024-03-25T09:38:08;12.80;96.00
10411;DHT22;5251;52.112;8.606;2024-03-25T09:40:40;13.00;96.00
10411;DHT22;5251;52.112;8.606;2024-03-25T09:43:21;13.10;94.80
10411;DHT22;5251;52.112;8.606;2024-03-25T09:45:48;13.10;94.30
10411;DHT22;5251;52.112;8.606;2024-03-25T09:48:16;13.30;94.60
10411;DHT22;5251;52.112;8.606;2024-03-25T09:50:45;13.40;95.10
10411;DHT22;5251;52.112;8.606;2024-03-25T09:53:10;13.50;94.20
10411;DHT22;5251;52.112;8.606;2024-03-25T09:55:36;13.50;93.00
10411;DHT22;5251;52.112;8.606;2024-03-25T09:58:03;13.50;91.40
10411;DHT22;5251;52.112;8.606;2024-03-25T10:00:29;13.40;92.50
10411;DHT22;5251;52.112;8.606;2024-03-25T10:02:55;13.40;93.30
10411;DHT22;5251;52.112;8.606;2024-03-25T10:05:21;13.50;93.40
10411;DHT22;5251;52.112;8.606;2024-03-25T10:07:47;13.40;92.80
10411;DHT22;5251;52.112;8.606;2024-03-25T10:10:13;13.40;92.50
10411;DHT22;5251;52.112;8.606;2024-03-25T10:12:38;13.30;92.80
10411;DHT22;5251;52.112;8.606;2024-03-25T10:15:04;13.30;93.20
10411;DHT22;5251;52.112;8.606;2024-03-25T10:17:31;13.20;93.50
10411;DHT22;5251;52.112;8.606;2024-03-25T10:19:57;13.20;94.30
10411;DHT22;5251;52.112;8.606;2024-03-25T10:22:22;13.20;94.60
10411;DHT22;5251;52.112;8.606;2024-03-25T10:24:48;13.20;94.70
10411;DHT22;5251;52.112;8.606;2024-03-25T10:27:23;13.30;95.30
10411;DHT22;5251;52.112;8.606;2024-03-25T10:29:53;13.50;95.20
10411;DHT22;5251;52.112;8.606;2024-03-25T10:32:21;13.40;94.90
10411;DHT22;5251;52.112;8.606;2024-03-25T10:34:46;13.50;94.60
10411;DHT22;5251;52.112;8.606;2024-03-25T10:37:13;13.60;93.60
10411;DHT22;5251;52.112;8.606;2024-03-25T10:39:54;13.60;92.70
10411;DHT22;5251;52.112;8.606;2024-03-25T10:42:22;13.70;93.20
10411;DHT22;5251;52.112;8.606;2024-03-25T10:44:48;13.70;93.00
10411;DHT22;5251;52.112;8.606;2024-03-25T10:47:28;13.60;92.80
10411;DHT22;5251;52.112;8.606;2024-03-25T10:49:59;13.60;92.70
10411;DHT22;5251;52.112;8.606;2024-03-25T10:52:30;13.60;92.60
10411;DHT22;5251;52.112;8.606;2024-03-25T10:54:58;13.50;93.00
10411;DHT22;5251;52.112;8.606;2024-03-25T10:57:24;13.40;92.70
10411;DHT22;5251;52.112;8.606;2024-03-25T10:59:51;13.40;93.60
10411;DHT22;5251;52.112;8.606;2024-03-25T11:02:18;13.40;93.70
10411;DHT22;5251;52.112;8.606;2024-03-25T11:04:45;13.40;93.60
10411;DHT22;5251;52.112;8.606;2024-03-25T11:07:12;13.50;93.60
10411;DHT22;5251;52.112;8.606;2024-03-25T11:09:38;13.50;93.40
10411;DHT22;5251;52.112;8.606;2024-03-25T11:12:04;13.60;94.30
10411;DHT22;5251;52.112;8.606;2024-03-25T11:14:30;13.70;93.50
10411;DHT22;5251;52.112;8.606;2024-03-25T11:16:59;13.70;92.60
10411;DHT22;5251;52.112;8.606;2024-03-25T11:19:27;13.80;91.50
10411;DHT22;5251;52.112;8.606;2024-03-25T11:21:53;13.80;91.40
10411;DHT22;5251;52.112;8.606;2024-03-25T11:24:28;13.80;89.20
10411;DHT22;5251;52.112;8.606;2024-03-25T11:26:55;13.80;90.30
10411;DHT22;5251;52.112;8.606;2024-03-25T11:29:21;13.70;89.10
10411;DHT22;5251;52.112;8.606;2024-03-25T11:31:49;13.70;90.30
10411;DHT22;5251;52.112;8.606;2024-03-25T11:34:15;13.60;90.60
10411;DHT22;5251;52.112;8.606;2024-03-25T11:36:40;13.70;90.90
10411;DHT22;5251;52.112;8.606;2024-03-25T11:39:06;13.60;90.60
10411;DHT22;5251;52.112;8.606;2024-03-25T11:41:39;13.50;90.70
10411;DHT22;5251;52.112;8.606;2024-03-25T11:44:05;13.50;90.60
10411;DHT22;5251;52.112;8.606;2024-03-25T11:46:31;13.50;90.70
10411;DHT22;5251;52.112;8.606;2024-03-25T11:48:57;13.50;90.10
10411;DHT22;5251;52.112;8.606;2024-03-25T11:51:23;13.40;90.40
10411;DHT22;5251;52.112;8.606;2024-03-25T11:53:49;13.40;90.40
10411;DHT22;5251;52.112;8.606;2024-03-25T11:56:15;13.30;90.30
10411;DHT22;5251;52.112;8.606;2024-03-25T11:58:41;13.30;90.00
10411;DHT22;5251;52.112;8.606;2024-03-25T12:01:08;13.30;90.10
10411;DHT22;5251;52.112;8.606;2024-03-25T12:03:35;13.40;90.90
10411;DHT22;5251;52.112;8.606;2024-03-25T12:06:01;13.30;90.70
10411;DHT22;5251;52.112;8.606;2024-03-25T12:08:27;13.30;89.60
10411;DHT22;5251;52.112;8.606;2024-03-25T12:10:54;13.40;90.00
10411;DHT22;5251;52.112;8.606;2024-03-25T12:13:39;13.40;89.20
10411;DHT22;5251;52.112;8.606;2024-03-25T12:16:08;13.40;89.50
10411;DHT22;5251;52.112;8.606;2024-03-25T12:18:35;13.40;88.00
10411;DHT22;5251;52.112;8.606;2024-03-25T12:21:04;13.40;85.40
10411;DHT22;5251;52.112;8.606;2024-03-25T12:23:31;13.40;86.30
10411;DHT22;5251;52.112;8.606;2024-03-25T12:25:59;13.40;85.90
10411;DHT22;5251;52.112;8.606;2024-03-25T12:28:25;13.40;84.90
10411;DHT22;5251;52.112;8.606;2024-03-25T12:30:52;13.50;84.40
10411;DHT22;5251;52.112;8.606;2024-03-25T12:33:18;13.60;87.30
10411;DHT22;5251;52.112;8.606;2024-03-25T12:35:48;13.70;88.10
10411;DHT22;5251;52.112;8.606;2024-03-25T12:38:25;13.80;87.70
10411;DHT22;5251;52.112;8.606;2024-03-25T12:40:50;13.90;85.70
10411;DHT22;5251;52.112;8.606;2024-03-25T12:43:16;14.00;87.00
10411;DHT22;5251;52.112;8.606;2024-03-25T12:45:42;14.00;85.50
10411;DHT22;5251;52.112;8.606;2024-03-25T12:48:09;14.10;83.10
10411;DHT22;5251;52.112;8.606;2024-03-25T12:50:35;14.20;84.60
10411;DHT22;5251;52.112;8.606;2024-03-25T12:53:01;14.20;85.70
10411;DHT22;5251;52.112;8.606;2024-03-25T12:55:29;14.20;83.80
10411;DHT22;5251;52.112;8.606;2024-03-25T12:57:54;14.30;82.20
10411;DHT22;5251;52.112;8.606;2024-03-25T13:00:20;14.20;80.40
10411;DHT22;5251;52.112;8.606;2024-03-25T13:02:45;14.30;78.20
10411;DHT22;5251;52.112;8.606;2024-03-25T13:05:11;14.30;76.30
10411;DHT22;5251;52.112;8.606;2024-03-25T13:07:37;14.30;76.00
10411;DHT22;5251;52.112;8.606;2024-03-25T13:10:03;14.20;74.80
10411;DHT22;5251;52.112;8.606;2024-03-25T13:12:30;14.20;74.20
10411;DHT22;5251;52.112;8.606;2024-03-25T13:14:56;14.20;73.50
10411;DHT22;5251;52.112;8.606;2024-03-25T13:17:22;14.20;72.30
10411;DHT22;5251;52.112;8.606;2024-03-25T13:19:48;14.10;72.80
10411;DHT22;5251;52.112;8.606;2024-03-25T13:22:14;14.10;75.00
10411;DHT22;5251;52.112;8.606;2024-03-25T13:24:39;14.00;75.50
10411;DHT22;5251;52.112;8.606;2024-03-25T13:27:05;14.00;74.80
10411;DHT22;5251;52.112;8.606;2024-03-25T13:29:31;14.10;73.40
10411;DHT22;5251;52.112;8.606;2024-03-25T13:31:56;14.10;73.10
10411;DHT22;5251;52.112;8.606;2024-03-25T13:34:22;14.10;73.20
10411;DHT22;5251;52.112;8.606;2024-03-25T13:36:47;14.20;75.90
10411;DHT22;5251;52.112;8.606;2024-03-25T13:39:13;14.20;74.40
10411;DHT22;5251;52.112;8.606;2024-03-25T13:41:39;14.20;76.60
10411;DHT22;5251;52.112;8.606;2024-03-25T13:44:04;14.30;78.20
10411;DHT22;5251;52.112;8.606;2024-03-25T13:46:30;14.40;75.00
10411;DHT22;5251;52.112;8.606;2024-03-25T13:48:55;14.50;75.90
10411;DHT22;5251;52.112;8.606;2024-03-25T13:51:21;14.60;77.10
10411;DHT22;5251;52.112;8.606;2024-03-25T13:53:47;14.70;77.30
10411;DHT22;5251;52.112;8.606;2024-03-25T13:56:13;14.90;76.20
10411;DHT22;5251;52.112;8.606;2024-03-25T13:58:39;14.90;76.50
10411;DHT22;5251;52.112;8.606;2024-03-25T14:01:04;15.00;75.40
10411;DHT22;5251;52.112;8.606;2024-03-25T14:03:31;15.10;77.20
10411;DHT22;5251;52.112;8.606;2024-03-25T14:05:56;15.20;77.90
10411;DHT22;5251;52.112;8.606;2024-03-25T14:08:22;15.20;76.10
10411;DHT22;5251;52.112;8.606;2024-03-25T14:11:02;15.30;74.80
10411;DHT22;5251;52.112;8.606;2024-03-25T14:13:28;15.40;75.10
10411;DHT22;5251;52.112;8.606;2024-03-25T14:15:53;15.50;75.30
10411;DHT22;5251;52.112;8.606;2024-03-25T14:18:19;15.50;75.00
10411;DHT22;5251;52.112;8.606;2024-03-25T14:20:45;15.50;74.10
10411;DHT22;5251;52.112;8.606;2024-03-25T14:23:12;15.60;73.70
10411;DHT22;5251;52.112;8.606;2024-03-25T14:25:37;15.60;74.40
10411;DHT22;5251;52.112;8.606;2024-03-25T14:28:03;15.70;75.10
10411;DHT22;5251;52.112;8.606;2024-03-25T14:30:29;15.70;76.20
10411;DHT22;5251;52.112;8.606;2024-03-25T14:32:55;15.70;76.80
10411;DHT22;5251;52.112;8.606;2024-03-25T14:35:21;15.70;75.80
10411;DHT22;5251;52.112;8.606;2024-03-25T14:37:46;15.70;76.00
10411;DHT22;5251;52.112;8.606;2024-03-25T14:40:12;15.70;74.50
10411;DHT22;5251;52.112;8.606;2024-03-25T14:42:38;15.70;74.60
10411;DHT22;5251;52.112;8.606;2024-03-25T14:45:04;15.80;74.60
10411;DHT22;5251;52.112;8.606;2024-03-25T14:47:31;15.80;74.30
10411;DHT22;5251;52.112;8.606;2024-03-25T14:49:56;15.80;75.20
10411;DHT22;5251;52.112;8.606;2024-03-25T14:52:23;15.80;74.80
10411;DHT22;5251;52.112;8.606;2024-03-25T14:54:48;15.70;72.00
10411;DHT22;5251;52.112;8.606;2024-03-25T14:57:14;15.70;72.80
10411;DHT22;5251;52.112;8.606;2024-03-25T14:59:39;15.70;73.80
10411;DHT22;5251;52.112;8.606;2024-03-25T15:02:05;15.70;75.20
10411;DHT22;5251;52.112;8.606;2024-03-25T15:04:31;15.70;72.20
10411;DHT22;5251;52.112;8.606;2024-03-25T15:06:58;15.80;73.40
10411;DHT22;5251;52.112;8.606;2024-03-25T15:09:24;15.80;71.90
10411;DHT22;5251;52.112;8.606;2024-03-25T15:11:50;15.80;71.30
10411;DHT22;5251;52.112;8.606;2024-03-25T15:14:15;15.90;71.50
10411;DHT22;5251;52.112;8.606;2024-03-25T15:16:41;15.90;72.30
10411;DHT22;5251;52.112;8.606;2024-03-25T15:19:07;15.90;71.50
10411;DHT22;5251;52.112;8.606;2024-03-25T15:21:35;15.90;71.60
10411;DHT22;5251;52.112;8.606;2024-03-25T15:24:04;16.00;71.50
10411;DHT22;5251;52.112;8.606;2024-03-25T15:26:30;15.90;67.30
10411;DHT22;5251;52.112;8.606;2024-03-25T15:28:55;15.90;68.80
10411;DHT22;5251;52.112;8.606;2024-03-25T15:31:21;15.90;69.70
10411;DHT22;5251;52.112;8.606;2024-03-25T15:33:46;15.80;69.80
10411;DHT22;5251;52.112;8.606;2024-03-25T15:36:13;15.80;70.80
10411;DHT22;5251;52.112;8.606;2024-03-25T15:38:39;15.70;71.80
10411;DHT22;5251;52.112;8.606;2024-03-25T15:41:05;15.70;70.30
10411;DHT22;5251;52.112;8.606;2024-03-25T15:43:31;15.60;68.70
10411;DHT22;5251;52.112;8.606;2024-03-25T15:46:00;15.60;70.20
10411;DHT22;5251;52.112;8.606;2024-03-25T15:48:26;15.50;70.90
10411;DHT22;5251;52.112;8.606;2024-03-25T15:50:52;15.50;71.90